Terminal Aerodrome Forecast
Issued by NWS

Home | Current Version | Previous Version | Text Only | Print | Product List | Glossary On
Versions: 1 2 3 4 5 6 7 8 9 10 11 12 13 14 15 16 17 18
000
FTUS43 KDVN 032348
TAFBRL
TAF
KBRL 032348Z 0400/0424 21015G23KT P6SM SCT120
     FM040630 21006KT 6SM -RA BR VCTS SCT050 BKN070CB
      TEMPO 0407/0409 3SM TSRA BR OVC020CB
     FM040900 24006KT P6SM VCSH SCT040 BKN090
     FM041600 VRB05KT P6SM VCSH SCT040 BKN100=

USA.gov is the U.S. government's official web portal to all federal, state and local government web resources and services.